Time;durP1;ratioP1;P1;durP2;ratioP2;P2;SDS_P1;SDS_P2;PMS_P1;PMS_P2;Temp;Humidity;BMP_temperature;BMP_pressure;BME280_temperature;BME280_humidity;BME280_pressure;Samples;Min_cycle;Max_cycle;Signal;HPM_P1;HPM_P2
2023/06/13 00:01:03;;;;;;;7.68;6.70;;;17.50;10.20;;;;;;5036044;28;20025;-69
2023/06/13 00:03:29;;;;;;;9.85;6.15;;;17.30;11.30;;;;;;5036100;28;20030;-69
2023/06/13 00:05:55;;;;;;;9.45;6.60;;;17.30;17.20;;;;;;5036199;28;20083;-69
2023/06/13 00:08:24;;;;;;;8.93;6.50;;;17.20;18.90;;;;;;5036171;28;20529;-69
2023/06/13 00:10:50;;;;;;;10.48;6.82;;;17.20;24.60;;;;;;5035957;28;20613;-69
2023/06/13 00:13:16;;;;;;;8.35;7.43;;;17.10;32.00;;;;;;5035933;28;20040;-69
2023/06/13 00:15:51;;;;;;;7.13;6.43;;;17.10;30.50;;;;;;5036057;28;20025;-69
2023/06/13 00:18:19;;;;;;;10.98;7.00;;;17.00;37.10;;;;;;5035894;28;20501;-69
2023/06/13 00:20:46;;;;;;;9.70;6.80;;;17.00;42.70;;;;;;5035747;28;20521;-69
2023/06/13 00:23:12;;;;;;;8.75;6.85;;;16.90;49.70;;;;;;5035717;28;20056;-69
2023/06/13 00:25:37;;;;;;;9.60;7.05;;;16.90;55.30;;;;;;5035728;28;20022;-69
2023/06/13 00:28:03;;;;;;;10.07;7.07;;;16.80;71.00;;;;;;5035800;28;20028;-68
2023/06/13 00:30:30;;;;;;;11.25;6.20;;;16.70;84.80;;;;;;5035797;28;20372;-67
2023/06/13 00:32:56;;;;;;;9.85;7.53;;;16.70;95.90;;;;;;5035498;28;20021;-67
2023/06/13 00:35:22;;;;;;;8.52;6.60;;;16.60;99.90;;;;;;5035679;28;20452;-67
2023/06/13 00:37:50;;;;;;;12.60;6.68;;;16.50;99.90;;;;;;5035505;28;20395;-67
2023/06/13 00:40:17;;;;;;;8.52;6.72;;;16.40;99.90;;;;;;5035592;28;20498;-67
2023/06/13 00:42:43;;;;;;;12.57;7.15;;;16.40;99.90;;;;;;5035309;28;20113;-68
2023/06/13 00:45:28;;;;;;;9.90;6.60;;;16.40;99.90;;;;;;5035000;28;20472;-69
2023/06/13 00:47:58;;;;;;;9.75;6.95;;;16.30;99.90;;;;;;5035356;28;20025;-67
2023/06/13 00:50:27;;;;;;;12.00;7.43;;;16.30;99.90;;;;;;5035357;28;20017;-67
2023/06/13 00:52:55;;;;;;;10.10;7.30;;;16.20;99.90;;;;;;5034937;28;20026;-67
2023/06/13 00:55:23;;;;;;;11.93;7.47;;;16.20;99.90;;;;;;5033960;28;20037;-69
2023/06/13 00:57:53;;;;;;;8.27;6.55;;;16.20;99.90;;;;;;5035171;28;20034;-68
2023/06/13 01:00:22;;;;;;;10.40;7.05;;;16.10;99.90;;;;;;5035106;28;20022;-69
2023/06/13 01:02:48;;;;;;;12.88;6.95;;;16.00;99.90;;;;;;5035050;28;20030;-69
2023/06/13 01:05:13;;;;;;;7.82;6.82;;;16.00;99.90;;;;;;5034865;28;20612;-68
2023/06/13 01:07:41;;;;;;;9.63;7.10;;;16.00;99.90;;;;;;5034982;28;20569;-69
2023/06/13 01:10:09;;;;;;;13.13;7.47;;;16.10;99.90;;;;;;5034754;28;20030;-68
2023/06/13 01:12:45;;;;;;;9.45;6.85;;;16.10;99.90;;;;;;5034942;28;20033;-70
2023/06/13 01:15:18;;;;;;;11.73;7.78;;;16.10;99.90;;;;;;5035001;28;20041;-69
2023/06/13 01:17:49;;;;;;;11.18;7.93;;;16.10;99.90;;;;;;5034745;28;20423;-67
2023/06/13 01:20:16;;;;;;;10.00;7.38;;;16.10;99.90;;;;;;5034788;28;20494;-67
2023/06/13 01:23:15;;;;;;;9.57;7.13;;;16.10;99.90;;;;;;5034876;28;20057;-68
2023/06/13 01:26:03;;;;;;;15.57;7.47;;;16.10;99.90;;;;;;5034311;28;20037;-67
2023/06/13 01:28:33;;;;;;;12.00;7.90;;;16.10;99.90;;;;;;5034382;28;20095;-67
2023/06/13 01:31:01;;;;;;;12.40;7.72;;;16.10;99.90;;;;;;5033434;28;20061;-67
2023/06/13 01:33:28;;;;;;;10.80;7.13;;;16.10;99.90;;;;;;5034567;28;20029;-67
2023/06/13 01:35:54;;;;;;;10.63;7.05;;;16.10;99.90;;;;;;5034295;28;20056;-67
2023/06/13 01:38:20;;;;;;;10.65;7.65;;;16.10;99.90;;;;;;5034050;28;20061;-67
2023/06/13 01:40:48;;;;;;;8.05;7.07;;;16.10;99.90;;;;;;5034282;28;20498;-67
2023/06/13 01:43:13;;;;;;;10.40;7.40;;;16.00;99.90;;;;;;5034225;28;20042;-67
2023/06/13 01:45:39;;;;;;;9.18;7.38;;;16.00;99.90;;;;;;5033895;28;20029;-67
2023/06/13 01:48:30;;;;;;;10.38;7.18;;;16.00;99.90;;;;;;5033995;28;20060;-67
2023/06/13 01:51:07;;;;;;;14.25;8.07;;;16.00;99.90;;;;;;5033709;28;20029;-69
2023/06/13 01:53:43;;;;;;;10.40;7.57;;;16.00;99.90;;;;;;5034256;28;20080;-68
2023/06/13 01:56:13;;;;;;;10.90;7.88;;;15.90;99.90;;;;;;5033963;28;20483;-69
2023/06/13 01:58:48;;;;;;;10.13;7.97;;;15.90;99.90;;;;;;5033936;28;20531;-68
2023/06/13 02:01:14;;;;;;;12.27;7.97;;;15.90;99.90;;;;;;5033995;28;20083;-68
2023/06/13 02:03:40;;;;;;;16.42;8.05;;;15.80;99.90;;;;;;5033859;28;20029;-69
2023/06/13 02:06:05;;;;;;;11.05;7.55;;;15.80;99.90;;;;;;5033745;28;20025;-69
2023/06/13 02:08:31;;;;;;;9.50;7.20;;;;;;;;;;5033765;28;20057;-69
2023/06/13 02:10:57;;;;;;;10.73;7.93;;;15.80;99.90;;;;;;5033369;28;20026;-69
2023/06/13 02:13:23;;;;;;;12.63;8.00;;;15.80;1.00;;;;;;5033432;28;20041;-67
2023/06/13 02:15:50;;;;;;;12.02;8.02;;;15.70;1.00;;;;;;5033489;28;20029;-67
2023/06/13 02:18:16;;;;;;;15.73;8.05;;;15.60;1.00;;;;;;5033377;28;20379;-67
2023/06/13 02:20:41;;;;;;;10.40;7.05;;;15.70;1.00;;;;;;5033674;28;20036;-67
2023/06/13 02:23:08;;;;;;;12.32;8.02;;;15.60;1.00;;;;;;5033478;28;20537;-67
2023/06/13 02:25:33;;;;;;;11.63;7.88;;;15.60;1.00;;;;;;5033374;28;20120;-67
2023/06/13 02:27:59;;;;;;;10.75;7.43;;;15.60;1.00;;;;;;5033594;28;20448;-67
2023/06/13 02:30:25;;;;;;;9.95;7.40;;;15.70;1.00;;;;;;5033471;28;20022;-67
2023/06/13 02:32:52;;;;;;;12.07;8.15;;;15.60;1.00;;;;;;5033417;28;20038;-68
2023/06/13 02:35:22;;;;;;;11.07;8.35;;;15.60;1.00;;;;;;5033592;28;20083;-67
2023/06/13 02:37:54;;;;;;;11.65;8.15;;;15.60;1.00;;;;;;5033412;28;20033;-68
2023/06/13 02:40:21;;;;;;;14.25;8.23;;;15.60;1.00;;;;;;5033290;28;20037;-68
2023/06/13 02:42:50;;;;;;;11.20;8.20;;;15.50;1.00;;;;;;5032129;28;20502;-68
2023/06/13 02:45:16;;;;;;;16.35;8.45;;;15.40;1.00;;;;;;5032912;28;20047;-68
2023/06/13 02:47:42;;;;;;;10.45;7.38;;;15.40;1.00;;;;;;5033197;28;20030;-68
2023/06/13 02:50:08;;;;;;;9.68;7.90;;;15.30;1.00;;;;;;5033329;28;20025;-68
2023/06/13 02:52:34;;;;;;;11.18;8.10;;;15.30;1.00;;;;;;5033082;28;20121;-69
2023/06/13 02:55:00;;;;;;;12.30;7.55;;;15.10;1.00;;;;;;5033234;28;20471;-68
2023/06/13 02:57:25;;;;;;;12.40;7.93;;;15.10;1.00;;;;;;5033335;28;20032;-67
2023/06/13 03:00:07;;;;;;;13.80;8.00;;;15.00;1.00;;;;;;5033201;28;20030;-67
2023/06/13 03:02:32;;;;;;;11.38;7.80;;;15.00;1.00;;;;;;5033249;28;20032;-69
2023/06/13 03:04:58;;;;;;;11.48;8.10;;;14.90;1.00;;;;;;5032974;28;20030;-66
2023/06/13 03:07:23;;;;;;;11.82;7.85;;;14.90;22.90;;;;;;5033233;28;20053;-66
2023/06/13 03:09:49;;;;;;;10.13;7.82;;;14.80;1.00;;;;;;5033291;28;20029;-66
2023/06/13 03:12:15;;;;;;;11.45;7.75;;;14.90;1.00;;;;;;5033174;28;20087;-66
2023/06/13 03:14:41;;;;;;;9.43;7.60;;;14.90;1.00;;;;;;5033331;28;20033;-66
2023/06/13 03:17:07;;;;;;;11.57;8.40;;;14.90;1.00;;;;;;5033137;28;20120;-66
2023/06/13 03:19:32;;;;;;;10.55;7.60;;;15.00;1.00;;;;;;5032956;28;20033;-66
2023/06/13 03:21:58;;;;;;;10.75;7.93;;;15.10;1.00;;;;;;5032971;28;20119;-66
2023/06/13 03:24:23;;;;;;;8.45;7.45;;;15.10;1.00;;;;;;5032819;28;20069;-66
2023/06/13 03:26:49;;;;;;;12.27;7.53;;;15.20;1.00;;;;;;5034722;28;20501;-66
2023/06/13 03:29:15;;;;;;;11.05;7.50;;;15.20;1.00;;;;;;5036844;28;20031;-67
2023/06/13 03:31:40;;;;;;;10.50;7.28;;;15.30;1.00;;;;;;5036798;28;20112;-66
2023/06/13 03:34:06;;;;;;;8.18;6.97;;;15.30;1.00;;;;;;5036299;28;20160;-66
2023/06/13 03:36:37;;;;;;;10.30;7.10;;;15.40;1.00;;;;;;5036665;28;20136;-66
2023/06/13 03:39:02;;;;;;;13.65;7.72;;;15.40;1.00;;;;;;5036622;28;20029;-67
2023/06/13 03:41:28;;;;;;;8.70;7.43;;;15.40;1.00;;;;;;5036271;28;20029;-66
2023/06/13 03:43:54;;;;;;;11.63;8.20;;;15.40;1.00;;;;;;5036213;28;20107;-66
2023/06/13 03:46:20;;;;;;;10.95;7.90;;;15.40;1.00;;;;;;5036477;28;20052;-67
2023/06/13 03:48:46;;;;;;;13.75;8.23;;;15.40;1.00;;;;;;5036468;28;20033;-66
2023/06/13 03:51:11;;;;;;;11.73;7.93;;;15.50;1.00;;;;;;5036606;28;20022;-66
2023/06/13 03:53:38;;;;;;;12.02;7.93;;;15.50;1.00;;;;;;5036417;28;20456;-66
2023/06/13 03:56:06;;;;;;;10.77;7.97;;;15.50;1.00;;;;;;5036157;28;20100;-66
2023/06/13 03:58:32;;;;;;;11.07;7.88;;;15.50;1.00;;;;;;5036120;28;20531;-66
2023/06/13 04:00:58;;;;;;;9.48;7.78;;;15.60;1.00;;;;;;5036269;28;20470;-66
2023/06/13 04:03:23;;;;;;;10.32;7.35;;;15.60;1.00;;;;;;5036319;28;20029;-66
2023/06/13 04:05:49;;;;;;;13.98;8.20;;;15.60;1.00;;;;;;5035910;28;20029;-66
2023/06/13 04:08:15;;;;;;;10.18;8.07;;;15.70;99.90;;;;;;5036219;28;20387;-66
2023/06/13 04:10:40;;;;;;;12.55;7.88;;;15.70;99.90;;;;;;5036169;28;20422;-67
2023/06/13 04:13:06;;;;;;;11.63;7.68;;;15.80;99.90;;;;;;5036024;28;20060;-66
2023/06/13 04:15:31;;;;;;;10.60;7.72;;;15.90;99.90;;;;;;5035845;28;20124;-66
2023/06/13 04:17:57;;;;;;;10.65;7.22;;;16.00;99.90;;;;;;5035701;28;20053;-66
2023/06/13 04:20:23;;;;;;;11.90;7.75;;;16.10;99.90;;;;;;5035599;28;20022;-66
2023/06/13 04:22:49;;;;;;;10.10;8.40;;;16.10;99.90;;;;;;5035800;28;20479;-66
2023/06/13 04:25:15;;;;;;;10.43;8.00;;;16.20;99.90;;;;;;5035471;28;20033;-66
2023/06/13 04:27:43;;;;;;;9.68;7.97;;;16.20;99.90;;;;;;5035982;28;20032;-66
2023/06/13 04:30:09;;;;;;;10.90;8.30;;;16.30;99.90;;;;;;5035502;28;20026;-66
2023/06/13 04:32:35;;;;;;;11.63;7.95;;;16.50;99.90;;;;;;5035499;28;20095;-66
2023/06/13 04:35:01;;;;;;;9.02;7.70;;;16.80;99.90;;;;;;5035633;28;20029;-66
2023/06/13 04:37:30;;;;;;;8.80;6.95;;;17.20;99.90;;;;;;5035082;28;20026;-66
2023/06/13 04:39:55;;;;;;;11.25;7.55;;;18.00;1.00;;;;;;5035535;28;20100;-67
2023/06/13 04:42:29;;;;;;;8.38;7.05;;;19.30;1.00;;;;;;5035351;28;20037;-67
2023/06/13 04:44:56;;;;;;;13.05;7.00;;;20.80;99.90;;;;;;5035023;28;20049;-67
2023/06/13 04:47:24;;;;;;;10.27;7.13;;;21.80;99.90;;;;;;5034281;28;20047;-67
2023/06/13 04:49:58;;;;;;;10.10;6.28;;;22.50;99.90;;;;;;5035408;28;20489;-67
2023/06/13 04:52:25;;;;;;;10.75;6.28;;;23.60;99.90;;;;;;5035140;28;20022;-67
2023/06/13 04:54:51;;;;;;;8.68;6.53;;;23.60;99.90;;;;;;5035050;28;20056;-67
2023/06/13 04:57:17;;;;;;;8.85;6.25;;;24.10;99.90;;;;;;5035152;28;20021;-68
2023/06/13 04:59:43;;;;;;;7.20;6.03;;;24.50;99.90;;;;;;5034005;28;20033;-67
2023/06/13 05:02:08;;;;;;;9.15;6.32;;;24.30;99.90;;;;;;5035012;28;20490;-67
2023/06/13 05:04:36;;;;;;;8.52;6.43;;;24.60;99.90;;;;;;5034593;28;20063;-68
2023/06/13 05:07:04;;;;;;;9.95;5.82;;;24.60;99.90;;;;;;5035018;28;20022;-68
2023/06/13 05:09:30;;;;;;;7.80;6.40;;;24.90;99.90;;;;;;5034796;28;20087;-69
2023/06/13 05:11:56;;;;;;;6.93;5.80;;;25.10;99.90;;;;;;5034512;28;20024;-68
2023/06/13 05:14:21;;;;;;;9.45;6.22;;;25.60;99.90;;;;;;5034577;28;20025;-68
2023/06/13 05:16:47;;;;;;;8.77;5.57;;;25.80;99.90;;;;;;5034711;28;20025;-69
2023/06/13 05:19:13;;;;;;;7.70;6.13;;;25.80;99.90;;;;;;5034927;28;20033;-68
2023/06/13 05:21:38;;;;;;;8.02;5.63;;;26.10;99.90;;;;;;5034461;28;20518;-69
2023/06/13 05:24:04;;;;;;;8.68;5.65;;;25.60;99.90;;;;;;5034413;28;20036;-69
2023/06/13 05:26:30;;;;;;;6.20;5.60;;;26.10;99.90;;;;;;5034678;28;20109;-69
2023/06/13 05:28:57;;;;;;;11.48;5.70;;;26.40;99.90;;;;;;5034479;28;20022;-69
2023/06/13 05:31:22;;;;;;;10.50;5.82;;;27.70;99.90;;;;;;5033116;28;20030;-68
2023/06/13 05:33:48;;;;;;;7.45;5.72;;;26.30;99.00;;;;;;5034622;28;20030;-68
2023/06/13 05:36:13;;;;;;;8.93;5.50;;;27.00;99.90;;;;;;5034376;28;20023;-68
2023/06/13 05:38:40;;;;;;;5.97;5.25;;;26.70;96.30;;;;;;5034027;28;20471;-68
2023/06/13 05:41:05;;;;;;;6.03;5.43;;;26.90;94.60;;;;;;5034155;28;20079;-69
2023/06/13 05:43:31;;;;;;;7.35;5.60;;;27.40;96.70;;;;;;5033911;28;20045;-69
2023/06/13 05:45:56;;;;;;;11.18;5.97;;;27.70;94.40;;;;;;5033850;28;20036;-68
2023/06/13 05:48:22;;;;;;;7.25;5.28;;;28.10;91.20;;;;;;5033646;28;20029;-69
2023/06/13 05:50:48;;;;;;;7.63;5.53;;;28.10;78.20;;;;;;5033639;28;20100;-68
2023/06/13 05:53:13;;;;;;;6.03;4.68;;;28.20;84.20;;;;;;5033861;28;20036;-68
2023/06/13 05:55:39;;;;;;;6.70;5.15;;;27.70;68.30;;;;;;5033603;28;20498;-69
2023/06/13 05:58:05;;;;;;;6.22;5.00;;;28.30;71.00;;;;;;5033913;28;20092;-69
2023/06/13 06:00:30;;;;;;;8.18;5.32;;;28.10;67.60;;;;;;5033593;28;20036;-69
2023/06/13 06:02:56;;;;;;;8.45;5.25;;;28.70;65.20;;;;;;5033624;28;20026;-69
2023/06/13 06:05:21;;;;;;;6.32;5.25;;;29.00;57.10;;;;;;5033623;28;20075;-69
2023/06/13 06:07:47;;;;;;;7.13;5.30;;;28.40;53.90;;;;;;5033759;28;20446;-69
2023/06/13 06:10:13;;;;;;;7.05;5.10;;;27.80;44.50;;;;;;5032802;28;20475;-69
2023/06/13 06:12:39;;;;;;;8.70;5.40;;;27.80;51.90;;;;;;5033592;28;20025;-68
2023/06/13 06:15:06;;;;;;;6.00;5.10;;;27.60;46.60;;;;;;5033354;28;20029;-68
2023/06/13 06:17:31;;;;;;;9.68;5.18;;;27.60;48.40;;;;;;5033433;28;20108;-69
2023/06/13 06:19:57;;;;;;;9.20;4.93;;;28.80;51.60;;;;;;5033575;28;20112;-69
2023/06/13 06:22:22;;;;;;;7.43;5.13;;;28.40;50.20;;;;;;5033471;28;20052;-68
2023/06/13 06:24:48;;;;;;;8.25;5.03;;;29.50;47.10;;;;;;5033490;28;20493;-69
2023/06/13 06:27:14;;;;;;;10.05;5.18;;;29.70;50.40;;;;;;5033464;28;20021;-68
2023/06/13 06:29:42;;;;;;;6.40;4.88;;;30.10;51.50;;;;;;5033087;28;20104;-68
2023/06/13 06:32:07;;;;;;;7.75;5.03;;;28.90;44.60;;;;;;5033453;28;20029;-68
2023/06/13 06:34:33;;;;;;;9.57;4.88;;;28.80;42.40;;;;;;5033287;28;20080;-68
2023/06/13 06:37:00;;;;;;;6.95;5.10;;;29.10;37.30;;;;;;5033339;28;20025;-69
2023/06/13 06:39:25;;;;;;;8.35;4.75;;;29.90;41.20;;;;;;5033131;28;20079;-69
2023/06/13 06:41:51;;;;;;;7.05;4.97;;;30.10;36.90;;;;;;5033366;28;20034;-69
2023/06/13 06:44:16;;;;;;;7.85;5.57;;;29.90;39.00;;;;;;5032368;28;20049;-68
2023/06/13 06:46:42;;;;;;;7.90;4.95;;;29.80;38.10;;;;;;5032736;28;20037;-69
2023/06/13 06:49:07;;;;;;;7.60;5.30;;;29.60;32.30;;;;;;5033088;28;20076;-68
2023/06/13 06:51:33;;;;;;;16.33;5.80;;;30.00;37.20;;;;;;5032812;28;20418;-69
2023/06/13 06:53:59;;;;;;;11.65;5.05;;;28.80;21.10;;;;;;5033176;28;20368;-69
2023/06/13 06:56:25;;;;;;;8.13;5.57;;;30.00;22.90;;;;;;5033310;28;20030;-68
2023/06/13 06:58:51;;;;;;;10.07;5.35;;;29.50;24.30;;;;;;5032926;28;20108;-69
2023/06/13 07:01:18;;;;;;;6.13;4.97;;;30.10;28.10;;;;;;5035377;28;20151;-69
2023/06/13 07:03:44;;;;;;;5.43;4.93;;;29.60;24.40;;;;;;5036650;28;20045;-69
2023/06/13 07:06:11;;;;;;;7.70;5.00;;;30.10;26.30;;;;;;5035029;28;20198;-68
2023/06/13 07:08:37;;;;;;;12.70;5.60;;;30.30;27.20;;;;;;5035585;28;20021;-69
2023/06/13 07:11:03;;;;;;;5.60;4.70;;;30.30;22.70;;;;;;5034784;28;20026;-69
2023/06/13 07:13:28;;;;;;;8.60;4.93;;;30.80;25.30;;;;;;5036984;28;20021;-68
2023/06/13 07:15:54;;;;;;;8.30;4.97;;;31.30;28.30;;;;;;5035661;28;20026;-69
2023/06/13 07:18:19;;;;;;;5.53;4.93;;;31.30;28.40;;;;;;5036935;28;20025;-69
2023/06/13 07:20:45;;;;;;;6.90;5.00;;;31.30;29.90;;;;;;5036743;28;20108;-70
2023/06/13 07:23:12;;;;;;;8.02;4.68;;;31.60;23.10;;;;;;5035387;28;20546;-69
2023/06/13 07:25:40;;;;;;;5.75;5.13;;;31.30;27.20;;;;;;5036407;28;20034;-69
2023/06/13 07:28:07;;;;;;;6.85;5.07;;;31.20;23.90;;;;;;5036608;28;20104;-69
2023/06/13 07:30:32;;;;;;;6.28;4.55;;;31.30;24.90;;;;;;5036224;28;20026;-69
2023/06/13 07:32:58;;;;;;;11.13;4.95;;;31.80;22.10;;;;;;5033420;28;20062;-69
2023/06/13 07:35:23;;;;;;;5.32;4.55;;;31.90;25.20;;;;;;5036422;28;20080;-68
2023/06/13 07:37:52;;;;;;;11.40;5.28;;;31.90;24.70;;;;;;5036646;28;20029;-69
2023/06/13 07:40:18;;;;;;;9.13;4.97;;;31.70;23.50;;;;;;5035508;28;20068;-69
2023/06/13 07:42:44;;;;;;;7.63;4.80;;;31.80;18.90;;;;;;5026103;28;20025;-69
2023/06/13 07:45:09;;;;;;;7.10;5.10;;;31.70;19.80;;;;;;5030307;28;20049;-68
2023/06/13 07:47:35;;;;;;;9.02;4.97;;;31.50;11.50;;;;;;5036390;28;20075;-69
2023/06/13 07:50:01;;;;;;;7.82;4.50;;;31.70;16.20;;;;;;5035331;28;20379;-69
2023/06/13 07:52:27;;;;;;;7.32;4.53;;;32.40;18.70;;;;;;5036188;28;20029;-68
2023/06/13 07:54:52;;;;;;;10.93;4.30;;;31.40;12.10;;;;;;5036405;28;20605;-67
2023/06/13 07:57:18;;;;;;;7.97;4.78;;;32.20;11.50;;;;;;5035966;28;20036;-67
2023/06/13 07:59:44;;;;;;;5.20;4.35;;;32.90;13.20;;;;;;5035082;28;20391;-68
2023/06/13 08:02:10;;;;;;;5.75;4.65;;;32.80;13.40;;;;;;5036023;28;20028;-67
2023/06/13 08:04:36;;;;;;;6.32;4.90;;;33.60;9.50;;;;;;5035048;28;20033;-68
2023/06/13 08:07:01;;;;;;;6.60;5.00;;;32.50;5.40;;;;;;5035943;28;20021;-67
2023/06/13 08:09:27;;;;;;;5.80;4.50;;;32.30;4.50;;;;;;5034871;28;20030;-68
2023/06/13 08:11:52;;;;;;;5.22;4.53;;;32.40;9.40;;;;;;5035152;28;20025;-70
2023/06/13 08:14:21;;;;;;;5.45;4.78;;;33.30;14.70;;;;;;5036027;28;20076;-67
2023/06/13 08:16:47;;;;;;;7.03;4.65;;;33.00;15.90;;;;;;5035838;28;20068;-68
2023/06/13 08:19:13;;;;;;;8.85;4.75;;;32.20;9.80;;;;;;5035856;28;20029;-67
2023/06/13 08:21:38;;;;;;;8.40;4.85;;;32.00;11.70;;;;;;5024987;28;20578;-68
2023/06/13 08:24:04;;;;;;;5.82;4.65;;;32.60;10.80;;;;;;5015935;28;20442;-68
2023/06/13 08:26:33;;;;;;;6.72;4.82;;;33.30;14.30;;;;;;5015865;28;20030;-68
2023/06/13 08:29:02;;;;;;;8.63;4.72;;;33.50;14.60;;;;;;5015830;28;20049;-68
2023/06/13 08:31:31;;;;;;;10.25;4.55;;;33.40;15.20;;;;;;5030686;28;20037;-67
2023/06/13 08:33:58;;;;;;;8.02;4.20;;;33.50;20.30;;;;;;5035426;28;20535;-67
2023/06/13 08:36:24;;;;;;;7.85;4.53;;;33.50;21.40;;;;;;5019141;28;20026;-68
2023/06/13 08:38:50;;;;;;;4.80;4.22;;;32.70;19.40;;;;;;5015725;28;20025;-68
2023/06/13 08:41:15;;;;;;;6.35;4.60;;;32.50;18.50;;;;;;5015614;28;20026;-68
2023/06/13 08:43:42;;;;;;;5.90;4.95;;;33.50;22.50;;;;;;5015252;28;20054;-68
2023/06/13 08:46:09;;;;;;;7.70;4.68;;;33.20;17.60;;;;;;5015386;28;20026;-68
2023/06/13 08:48:35;;;;;;;4.90;4.40;;;33.00;15.00;;;;;;5015337;28;20050;-68
2023/06/13 08:51:03;;;;;;;6.18;4.57;;;33.60;18.20;;;;;;5029741;28;20109;-68
2023/06/13 08:53:31;;;;;;;6.90;4.30;;;34.70;19.00;;;;;;5033771;28;20100;-68
2023/06/13 08:56:03;;;;;;;5.32;4.00;;;33.20;12.70;;;;;;5034255;28;20038;-67
2023/06/13 08:58:33;;;;;;;6.25;4.05;;;33.00;8.10;;;;;;5035187;28;20428;-68
2023/06/13 09:01:00;;;;;;;7.15;4.53;;;33.00;16.20;;;;;;5035180;28;20095;-68
2023/06/13 09:03:28;;;;;;;8.05;4.25;;;32.90;3.90;;;;;;5034941;28;20369;-67
2023/06/13 09:05:55;;;;;;;6.60;4.53;;;32.20;2.90;;;;;;5034846;28;20037;-68
2023/06/13 09:08:22;;;;;;;4.72;4.32;;;33.30;6.80;;;;;;5024846;28;20041;-68
2023/06/13 09:10:49;;;;;;;5.07;4.50;;;33.00;10.40;;;;;;5017841;28;20021;-67
2023/06/13 09:13:16;;;;;;;5.78;4.05;;;32.70;9.50;;;;;;5034802;28;20036;-67
2023/06/13 09:15:43;;;;;;;8.45;4.32;;;32.90;22.80;;;;;;5033711;28;20421;-67
2023/06/13 09:18:09;;;;;;;5.78;4.18;;;33.80;11.50;;;;;;5033195;28;20029;-68
2023/06/13 09:20:35;;;;;;;6.43;4.05;;;33.40;1.00;;;;;;5034752;28;20029;-67
2023/06/13 09:23:01;;;;;;;7.75;5.15;;;33.70;1.00;;;;;;5034912;28;20034;-67
2023/06/13 09:25:30;;;;;;;7.78;4.38;;;33.30;1.00;;;;;;5032599;28;20029;-67
2023/06/13 09:27:55;;;;;;;5.15;3.88;;;32.80;1.00;;;;;;5034460;28;20424;-67
2023/06/13 09:30:21;;;;;;;5.65;4.13;;;33.40;1.00;;;;;;5034473;28;20021;-68
2023/06/13 09:32:49;;;;;;;8.45;4.47;;;32.90;1.00;;;;;;5034581;28;20022;-67
2023/06/13 09:35:15;;;;;;;7.95;3.92;;;33.20;1.00;;;;;;5034359;28;20143;-68
2023/06/13 09:37:41;;;;;;;7.28;4.28;;;33.00;1.00;;;;;;5033292;28;20084;-68
2023/06/13 09:40:09;;;;;;;5.10;3.88;;;32.70;1.00;;;;;;5033985;28;20083;-68
2023/06/13 09:42:35;;;;;;;5.82;4.60;;;32.40;1.00;;;;;;5019752;28;20034;-67
2023/06/13 09:45:07;;;;;;;7.70;4.72;;;32.40;1.00;;;;;;5014124;28;20137;-67
2023/06/13 09:47:34;;;;;;;8.63;4.50;;;32.60;14.70;;;;;;5014472;28;20029;-67
2023/06/13 09:50:00;;;;;;;6.97;4.90;;;31.70;1.00;;;;;;5014421;28;20026;-68
2023/06/13 09:52:27;;;;;;;4.78;4.38;;;30.50;1.00;;;;;;5014285;28;20034;-67
2023/06/13 09:54:53;;;;;;;6.90;4.28;;;30.90;1.00;;;;;;5018929;28;20036;-67
2023/06/13 09:57:21;;;;;;;5.78;4.63;;;31.30;1.00;;;;;;5032765;28;20032;-67
2023/06/13 09:59:47;;;;;;;6.03;4.55;;;31.80;5.70;;;;;;5027504;28;20361;-68
2023/06/13 10:02:15;;;;;;;5.88;4.53;;;32.00;6.40;;;;;;5015553;28;20030;-67
2023/06/13 10:04:41;;;;;;;4.85;4.43;;;32.20;5.10;;;;;;5013749;28;20030;-68
2023/06/13 10:07:06;;;;;;;6.13;4.57;;;33.00;7.00;;;;;;5013815;28;20034;-68
2023/06/13 10:09:32;;;;;;;6.70;4.88;;;32.30;3.10;;;;;;5013922;28;20028;-67
2023/06/13 10:11:59;;;;;;;7.85;5.03;;;32.60;5.50;;;;;;5013916;28;20026;-68
2023/06/13 10:14:27;;;;;;;6.32;4.68;;;31.50;1.40;;;;;;5032195;28;20104;-67
2023/06/13 10:17:01;;;;;;;6.20;5.00;;;32.30;2.90;;;;;;5033715;28;20398;-67
2023/06/13 10:19:29;;;;;;;6.82;4.75;;;31.10;1.00;;;;;;5016981;28;20084;-67
2023/06/13 10:21:55;;;;;;;10.27;4.82;;;30.40;1.00;;;;;;5013769;28;20394;-68
2023/06/13 10:24:22;;;;;;;11.57;5.30;;;29.50;1.00;;;;;;5013669;28;20053;-67
2023/06/13 10:26:53;;;;;;;8.23;4.82;;;29.80;1.10;;;;;;5028471;28;20049;-67
2023/06/13 10:29:40;;;;;;;8.57;5.15;;;30.40;1.00;;;;;;5033474;28;20028;-67
2023/06/13 10:32:35;;;;;;;5.78;4.97;;;31.10;1.00;;;;;;5017727;28;20380;-67
2023/06/13 10:35:31;;;;;;;6.20;4.70;;;31.00;1.00;;;;;;5013081;28;20030;-68
2023/06/13 10:38:33;;;;;;;6.80;4.43;;;30.60;1.00;;;;;;5027793;28;20037;-67
2023/06/13 10:44:07;;;;;;;7.30;4.78;;;30.20;1.00;;;;;;5111080;27;20934;-68
2023/06/13 10:46:34;;;;;;;5.93;4.68;;;29.50;1.00;;;;;;5110394;28;20060;-68
2023/06/13 10:49:00;;;;;;;7.95;4.80;;;29.30;1.00;;;;;;5110807;28;20024;-68
2023/06/13 10:51:27;;;;;;;12.13;4.47;;;29.10;1.00;;;;;;5110898;28;20471;-69
2023/06/13 10:56:45;;;;;;;6.75;5.35;;;29.40;1.00;;;;;;5111079;27;20396;-68
2023/06/13 10:59:14;;;;;;;7.80;4.90;;;29.20;1.00;;;;;;5110987;28;20035;-68
2023/06/13 11:01:41;;;;;;;6.30;4.78;;;28.80;1.00;;;;;;5110022;28;20440;-68
2023/06/13 11:06:46;;;;;;;6.65;4.93;;;28.60;1.00;;;;;;5070576;28;20349;-68
2023/06/13 11:09:15;;;;;;;5.78;5.18;;;29.20;1.00;;;;;;5070413;28;20078;-68
2023/06/13 11:11:44;;;;;;;5.53;4.53;;;29.30;1.00;;;;;;5070422;28;20048;-68
2023/06/13 11:14:10;;;;;;;5.85;5.22;;;29.60;1.00;;;;;;5070588;28;20445;-67
2023/06/13 11:16:38;;;;;;;6.18;4.78;;;29.60;1.00;;;;;;5069302;28;20112;-68
2023/06/13 11:19:14;;;;;;;6.97;4.78;;;29.40;1.00;;;;;;5050297;28;20033;-68
2023/06/13 11:21:45;;;;;;;6.25;4.70;;;29.60;1.00;;;;;;5050244;28;20049;-68
2023/06/13 11:24:14;;;;;;;5.97;4.63;;;29.20;1.00;;;;;;5064825;28;20214;-68
2023/06/13 11:26:43;;;;;;;9.15;5.63;;;28.90;1.00;;;;;;5068725;28;20021;-67
2023/06/13 11:29:10;;;;;;;8.82;5.38;;;28.90;1.00;;;;;;5070227;28;20032;-68
2023/06/13 11:31:38;;;;;;;8.20;4.93;;;28.20;1.00;;;;;;5069918;28;20017;-68
2023/06/13 11:34:05;;;;;;;8.95;5.10;;;28.00;1.00;;;;;;5070049;28;20021;-68
2023/06/13 11:36:35;;;;;;;8.73;5.13;;;28.20;1.00;;;;;;5068799;28;20021;-68
2023/06/13 11:39:03;;;;;;;8.10;4.85;;;28.10;1.00;;;;;;5069811;28;20040;-67
2023/06/13 11:41:32;;;;;;;7.32;4.85;;;28.00;1.00;;;;;;5076365;28;20086;-68
2023/06/13 11:43:58;;;;;;;7.15;4.90;;;28.10;1.00;;;;;;5068861;28;20397;-68
2023/06/13 11:46:23;;;;;;;7.35;5.13;;;27.90;1.00;;;;;;5069237;28;20028;-68
2023/06/13 11:48:56;;;;;;;6.30;4.95;;;28.60;1.00;;;;;;5069753;28;20025;-68
2023/06/13 11:51:22;;;;;;;;;;;28.90;1.00;;;;;;5070356;28;20032;-68
2023/06/13 11:53:53;;;;;;;7.97;4.85;;;28.70;1.00;;;;;;5069689;28;20373;-67
2023/06/13 11:56:20;;;;;;;11.10;5.43;;;28.90;1.00;;;;;;5069626;28;20029;-67
2023/06/13 11:58:47;;;;;;;10.30;5.30;;;29.00;1.00;;;;;;5069615;28;20025;-67
2023/06/13 12:01:13;;;;;;;7.45;5.00;;;28.90;1.00;;;;;;5069443;28;20028;-66
2023/06/13 12:03:40;;;;;;;7.18;5.00;;;28.30;1.00;;;;;;5052571;28;20021;-67
2023/06/13 12:06:07;;;;;;;7.88;5.13;;;27.80;1.00;;;;;;5049091;28;20076;-67
2023/06/13 12:08:34;;;;;;;6.07;4.93;;;27.80;1.00;;;;;;5049509;28;20029;-68
2023/06/13 12:11:05;;;;;;;6.18;5.30;;;27.70;1.00;;;;;;5053275;28;20047;-67
2023/06/13 12:13:33;;;;;;;7.97;5.20;;;27.50;1.00;;;;;;5067992;28;20032;-68
2023/06/13 12:15:59;;;;;;;8.65;4.75;;;27.70;1.00;;;;;;5067853;28;20044;-67
2023/06/13 12:18:28;;;;;;;6.30;4.95;;;28.10;1.00;;;;;;5055780;28;20025;-69
2023/06/13 12:20:56;;;;;;;10.10;5.22;;;28.20;1.00;;;;;;5053653;28;20025;-68
2023/06/13 12:23:23;;;;;;;7.35;4.55;;;27.90;1.00;;;;;;5055548;28;20467;-67
2023/06/13 12:25:50;;;;;;;5.20;4.75;;;28.10;1.00;;;;;;5054748;28;20496;-67
2023/06/13 12:28:18;;;;;;;6.00;5.07;;;28.30;1.00;;;;;;5054542;28;20493;-67
2023/06/13 12:30:45;;;;;;;6.72;4.80;;;28.00;1.00;;;;;;5054705;28;20025;-67
2023/06/13 12:33:15;;;;;;;9.02;5.40;;;27.90;1.00;;;;;;5055519;28;20021;-67
2023/06/13 12:35:48;;;;;;;7.57;5.78;;;28.10;1.00;;;;;;5046788;28;20041;-67
2023/06/13 12:38:14;;;;;;;11.43;5.30;;;27.80;1.00;;;;;;5041195;28;20508;-67
2023/06/13 12:40:40;;;;;;;6.03;5.32;;;27.70;1.00;;;;;;5034224;28;20116;-67
2023/06/13 12:43:05;;;;;;;5.60;4.85;;;27.40;1.00;;;;;;5035685;28;20058;-68
2023/06/13 12:45:31;;;;;;;9.10;5.22;;;27.50;1.00;;;;;;5035523;28;20025;-68
2023/06/13 12:47:58;;;;;;;10.88;4.97;;;27.60;1.00;;;;;;5048987;28;20040;-67
2023/06/13 12:50:24;;;;;;;8.07;4.90;;;27.90;1.00;;;;;;5036697;28;20032;-67
2023/06/13 12:53:06;;;;;;;6.05;5.45;;;28.20;1.00;;;;;;5035434;28;20410;-67
2023/06/13 12:55:33;;;;;;;9.35;5.35;;;28.60;1.00;;;;;;5035337;28;20460;-67
2023/06/13 12:58:01;;;;;;;7.78;5.25;;;28.80;1.00;;;;;;5035384;28;20061;-67